Time;durP1;ratioP1;P1;durP2;ratioP2;P2;SDS_P1;SDS_P2;PMS_P1;PMS_P2;Temp;Humidity;BMP_temperature;BMP_pressure;BME280_temperature;BME280_humidity;BME280_pressure;Samples;Min_cycle;Max_cycle;Signal;HPM_P1;HPM_P2
2022/12/15 00:38:44;;;;;;;13.13;7.77;;;7.50;97.60;;;;;;6184873;23;20164;-79
2022/12/15 00:41:13;;;;;;;15.40;8.30;;;7.60;97.50;;;;;;6183718;23;20176;-79
2022/12/15 00:43:41;;;;;;;18.70;8.97;;;7.60;97.60;;;;;;6185317;23;20168;-79
2022/12/15 00:48:57;;;;;;;15.70;8.30;;;7.60;97.80;;;;;;6185018;23;20279;-79
2022/12/15 01:21:54;;;;;;;20.47;9.03;;;7.70;96.90;;;;;;6181141;23;20483;-77
2022/12/15 01:24:23;;;;;;;16.20;8.70;;;7.70;97.00;;;;;;6181719;23;20172;-78
2022/12/15 01:26:51;;;;;;;16.93;9.47;;;7.70;96.90;;;;;;6181377;23;20195;-77
2022/12/15 01:29:19;;;;;;;20.63;8.60;;;7.70;97.00;;;;;;6178732;23;20231;-77
2022/12/15 01:31:48;;;;;;;15.77;8.83;;;7.70;97.10;;;;;;6182233;23;20172;-77
2022/12/15 01:34:21;;;;;;;16.43;8.97;;;7.70;97.10;;;;;;6179409;23;20179;-77
2022/12/15 01:36:50;;;;;;;18.00;10.05;;;7.70;97.10;;;;;;6178657;23;20385;-77
2022/12/15 01:39:18;;;;;;;15.33;9.40;;;7.70;97.30;;;;;;6183288;23;20160;-78
2022/12/15 01:41:45;;;;;;;19.03;9.70;;;7.60;97.30;;;;;;6183274;23;20172;-77
2022/12/15 01:44:16;;;;;;;19.77;9.50;;;7.60;97.20;;;;;;6183202;23;20180;-77
2022/12/15 01:46:45;;;;;;;18.43;9.13;;;7.60;97.20;;;;;;6182579;23;20170;-78
2022/12/15 01:49:17;;;;;;;14.87;9.20;;;7.70;97.20;;;;;;6183625;23;20207;-77
2022/12/15 01:51:51;;;;;;;17.00;9.13;;;7.70;97.20;;;;;;6180359;23;20164;-78
2022/12/15 01:54:23;;;;;;;16.20;9.03;;;7.70;97.20;;;;;;6181575;23;20163;-77
2022/12/15 01:56:55;;;;;;;15.87;8.30;;;7.70;97.30;;;;;;6181946;23;20613;-77
2022/12/15 01:59:29;;;;;;;18.23;9.63;;;7.60;97.40;;;;;;6181507;23;20218;-77
2022/12/15 02:01:57;;;;;;;16.47;8.67;;;7.70;97.30;;;;;;6183274;23;20230;-78
2022/12/15 02:04:26;;;;;;;19.17;9.20;;;7.60;97.40;;;;;;6184494;23;20191;-78
2022/12/15 02:06:55;;;;;;;18.57;8.90;;;7.60;97.50;;;;;;6185304;23;20172;-78
2022/12/15 02:09:26;;;;;;;16.40;8.63;;;7.70;97.40;;;;;;6183125;23;20290;-77
2022/12/15 02:12:01;;;;;;;15.27;7.63;;;7.70;97.50;;;;;;6184117;23;20888;-78
2022/12/15 02:14:47;;;;;;;17.33;8.77;;;7.70;97.30;;;;;;6184295;23;20171;-78
2022/12/15 02:17:28;;;;;;;18.30;8.23;;;7.70;97.30;;;;;;6179920;23;20217;-77
2022/12/15 02:20:28;;;;;;;16.67;8.23;;;7.80;97.30;;;;;;6182072;23;20632;-77
2022/12/15 02:23:24;;;;;;;15.77;8.10;;;7.80;97.30;;;;;;6181117;23;20497;-78
2022/12/15 02:26:16;;;;;;;13.53;7.70;;;7.80;97.20;;;;;;6181390;23;20270;-79
2022/12/15 02:28:56;;;;;;;16.60;9.57;;;7.80;97.20;;;;;;6180322;23;20189;-77
2022/12/15 02:31:50;;;;;;;15.57;7.73;;;7.80;97.30;;;;;;6182357;23;20214;-76
2022/12/15 02:34:26;;;;;;;18.27;8.37;;;7.80;97.20;;;;;;6181652;23;20179;-78
2022/12/15 02:36:59;;;;;;;13.93;7.57;;;7.80;97.30;;;;;;6180623;23;20160;-77
2022/12/15 02:39:29;;;;;;;14.90;7.80;;;7.80;97.40;;;;;;6180746;23;20174;-77
2022/12/15 02:41:57;;;;;;;15.27;8.20;;;7.80;97.30;;;;;;6180676;23;20500;-78
2022/12/15 02:44:29;;;;;;;15.93;8.00;;;7.80;97.30;;;;;;6179272;23;20171;-78
2022/12/15 02:47:23;;;;;;;16.63;8.27;;;7.80;97.40;;;;;;6183531;23;20174;-77
2022/12/15 02:50:10;;;;;;;17.80;9.23;;;7.80;97.50;;;;;;6182281;23;20635;-77
2022/12/15 02:53:00;;;;;;;13.20;8.07;;;7.80;97.50;;;;;;6182565;23;20164;-77
2022/12/15 02:55:36;;;;;;;16.30;8.10;;;7.80;97.40;;;;;;6178740;23;20167;-78
2022/12/15 02:58:12;;;;;;;15.53;8.93;;;7.90;97.40;;;;;;6183587;23;20616;-78
2022/12/15 03:00:44;;;;;;;14.93;8.37;;;7.90;97.30;;;;;;6184014;23;20162;-78
2022/12/15 03:03:18;;;;;;;17.90;9.13;;;7.90;97.30;;;;;;6179294;23;20620;-77
2022/12/15 03:05:47;;;;;;;13.50;8.47;;;8.00;97.40;;;;;;6182713;23;20554;-77
2022/12/15 03:08:16;;;;;;;14.43;7.17;;;8.00;97.40;;;;;;6183302;23;20172;-77
2022/12/15 03:10:44;;;;;;;16.77;8.53;;;7.90;97.50;;;;;;6180511;23;20179;-78
2022/12/15 03:13:13;;;;;;;13.53;7.63;;;7.90;97.60;;;;;;6183197;23;20172;-78
2022/12/15 03:15:42;;;;;;;15.97;8.03;;;7.90;97.60;;;;;;6183254;23;20200;-77
2022/12/15 03:18:10;;;;;;;13.00;7.30;;;7.90;97.60;;;;;;6181938;23;20176;-78
2022/12/15 03:20:40;;;;;;;13.80;7.37;;;7.90;97.70;;;;;;6177161;23;20172;-78
2022/12/15 03:23:08;;;;;;;15.30;8.50;;;7.90;97.70;;;;;;6177181;23;20171;-76
2022/12/15 03:25:37;;;;;;;15.43;7.87;;;8.00;97.70;;;;;;6181726;23;20199;-78
2022/12/15 03:28:05;;;;;;;16.10;7.87;;;7.90;97.80;;;;;;6184910;23;20219;-77
2022/12/15 03:30:33;;;;;;;16.53;8.77;;;7.90;97.90;;;;;;6183276;23;20195;-77
2022/12/15 03:33:02;;;;;;;14.90;7.63;;;8.00;97.90;;;;;;6181817;23;20636;-77
2022/12/15 03:35:32;;;;;;;14.20;8.37;;;7.90;97.90;;;;;;6179042;23;20171;-78
2022/12/15 03:38:02;;;;;;;10.90;6.87;;;7.90;97.90;;;;;;6179928;23;20570;-78
2022/12/15 03:40:30;;;;;;;15.10;8.00;;;8.00;98.00;;;;;;6183589;23;20230;-78
2022/12/15 03:42:58;;;;;;;17.47;7.90;;;8.00;98.00;;;;;;6184062;23;20443;-78
2022/12/15 03:45:28;;;;;;;16.53;7.67;;;8.00;97.90;;;;;;6182656;23;20559;-78
2022/12/15 03:47:58;;;;;;;15.10;9.07;;;8.00;98.00;;;;;;6181595;23;20447;-77
2022/12/15 03:50:29;;;;;;;13.33;7.43;;;8.00;98.10;;;;;;6180370;23;20199;-78
2022/12/15 03:52:59;;;;;;;12.00;7.20;;;8.00;98.10;;;;;;6182816;23;20162;-78
2022/12/15 03:55:29;;;;;;;15.37;7.67;;;8.10;98.10;;;;;;6179976;23;20171;-77
2022/12/15 03:57:57;;;;;;;12.23;7.27;;;8.10;98.10;;;;;;6180686;23;20269;-79
2022/12/15 04:00:27;;;;;;;18.23;8.20;;;8.10;98.10;;;;;;6182392;23;20496;-77
2022/12/15 04:02:55;;;;;;;15.13;8.90;;;8.20;98.00;;;;;;6183512;23;20858;-77
2022/12/15 04:05:26;;;;;;;14.47;7.47;;;8.20;98.20;;;;;;6184132;23;20186;-78
2022/12/15 04:07:55;;;;;;;14.13;7.73;;;8.20;98.10;;;;;;6185255;23;20840;-78
2022/12/15 04:10:25;;;;;;;16.90;7.67;;;8.20;98.10;;;;;;6183685;23;20196;-78
2022/12/15 04:13:04;;;;;;;14.00;7.77;;;8.20;98.00;;;;;;6184307;23;20234;-79
2022/12/15 04:15:33;;;;;;;14.90;7.97;;;8.30;97.90;;;;;;6184259;23;20163;-77
2022/12/15 04:18:02;;;;;;;14.20;7.30;;;8.30;97.90;;;;;;6182168;23;20229;-78
2022/12/15 04:20:31;;;;;;;16.93;8.90;;;8.30;97.90;;;;;;6178622;23;20491;-78
2022/12/15 04:23:00;;;;;;;13.37;8.30;;;8.40;97.80;;;;;;6179658;23;20186;-78
2022/12/15 05:32:12;;;;;;;12.93;7.17;;;8.60;97.10;;;;;;6185721;23;20198;-78
2022/12/15 05:34:41;;;;;;;12.50;7.30;;;8.60;97.00;;;;;;6180113;23;20255;-79
2022/12/15 05:37:10;;;;;;;14.47;7.20;;;8.60;97.30;;;;;;6183456;23;20172;-79
2022/12/15 05:39:38;;;;;;;16.80;7.73;;;8.60;96.90;;;;;;6183160;23;20354;-79
2022/12/15 05:42:06;;;;;;;12.73;7.20;;;8.60;96.90;;;;;;6184347;23;20226;-79
2022/12/15 05:44:35;;;;;;;15.13;7.27;;;8.60;96.80;;;;;;6181946;23;20229;-79
2022/12/15 05:47:03;;;;;;;14.10;8.00;;;8.60;96.80;;;;;;6184085;23;20180;-78
2022/12/15 05:49:32;;;;;;;12.57;7.13;;;8.70;96.80;;;;;;6182613;23;20254;-77
2022/12/15 05:52:02;;;;;;;16.43;7.40;;;8.60;96.70;;;;;;6183581;23;20179;-77
2022/12/15 05:54:30;;;;;;;11.83;6.67;;;8.60;96.60;;;;;;6182530;23;20629;-79
2022/12/15 05:56:58;;;;;;;13.50;6.80;;;8.60;96.60;;;;;;6182169;23;20168;-79
2022/12/15 05:59:27;;;;;;;14.27;7.70;;;8.60;96.60;;;;;;6182026;23;20638;-78
2022/12/15 06:01:55;;;;;;;12.67;6.97;;;8.70;96.70;;;;;;6184525;23;20175;-79
2022/12/15 06:04:23;;;;;;;13.17;6.47;;;8.70;96.70;;;;;;6183854;23;20208;-80
2022/12/15 06:06:52;;;;;;;12.57;6.53;;;8.70;96.70;;;;;;6182661;23;20551;-78
2022/12/15 06:09:21;;;;;;;12.53;6.33;;;8.70;96.60;;;;;;6181601;23;20560;-79
2022/12/15 06:11:50;;;;;;;11.60;6.27;;;8.70;96.60;;;;;;6183836;23;20183;-85
2022/12/15 06:14:18;;;;;;;9.90;5.93;;;8.80;96.60;;;;;;6182102;23;20176;-80
2022/12/15 06:16:46;;;;;;;11.93;6.40;;;8.80;96.60;;;;;;6181047;23;20180;-80
2022/12/15 06:19:18;;;;;;;13.13;6.73;;;8.80;96.60;;;;;;6183568;23;20585;-80
2022/12/15 06:21:46;;;;;;;10.80;6.57;;;8.90;96.60;;;;;;6182698;23;20172;-79
2022/12/15 06:24:15;;;;;;;15.27;7.50;;;8.90;96.50;;;;;;6182013;23;20176;-79
2022/12/15 06:26:45;;;;;;;13.13;6.70;;;8.90;96.50;;;;;;6180310;23;20456;-81
2022/12/15 06:29:17;;;;;;;12.37;6.10;;;8.90;96.50;;;;;;6183905;23;20636;-80
2022/12/15 06:31:45;;;;;;;10.93;6.50;;;9.00;96.50;;;;;;6176942;23;20500;-77
2022/12/15 06:34:16;;;;;;;11.37;6.60;;;9.00;96.50;;;;;;6181182;23;20179;-78
2022/12/15 06:36:45;;;;;;;14.03;6.93;;;9.10;96.50;;;;;;6180074;23;20234;-78
2022/12/15 06:39:15;;;;;;;14.77;7.03;;;9.10;96.40;;;;;;6177773;23;20547;-78
2022/12/15 06:41:45;;;;;;;13.00;7.47;;;9.10;96.40;;;;;;6182222;23;20164;-86
2022/12/15 06:44:14;;;;;;;15.53;7.80;;;9.10;96.40;;;;;;6179195;23;20167;-79
2022/12/15 06:46:44;;;;;;;16.93;7.40;;;9.20;96.30;;;;;;6183036;23;20229;-79
2022/12/15 06:49:13;;;;;;;15.40;7.97;;;9.20;96.20;;;;;;6181599;23;20160;-78
2022/12/15 06:51:43;;;;;;;16.80;7.73;;;9.20;96.10;;;;;;6185155;23;20199;-78
2022/12/15 06:54:12;;;;;;;12.60;6.90;;;9.20;96.20;;;;;;6178462;23;20164;-78
2022/12/15 06:56:41;;;;;;;12.87;7.13;;;9.20;96.10;;;;;;6182771;23;20172;-77
2022/12/15 06:59:12;;;;;;;13.87;6.60;;;9.30;96.10;;;;;;6182386;23;20210;-76
2022/12/15 07:01:41;;;;;;;12.23;6.93;;;9.30;96.10;;;;;;6183193;23;20183;-78
2022/12/15 07:04:10;;;;;;;12.67;7.40;;;9.30;96.10;;;;;;6177836;23;20168;-77
2022/12/15 07:06:39;;;;;;;11.70;7.03;;;9.30;95.90;;;;;;6178322;23;20178;-77
2022/12/15 07:09:11;;;;;;;12.52;7.45;;;9.30;95.80;;;;;;6180001;23;20385;-77
2022/12/15 07:11:40;;;;;;;12.00;6.63;;;9.30;95.90;;;;;;6179641;23;20184;-77
2022/12/15 07:14:11;;;;;;;11.30;6.20;;;9.20;95.80;;;;;;6175451;23;20171;-77
2022/12/15 07:16:41;;;;;;;10.77;6.27;;;9.20;95.70;;;;;;6179903;23;20160;-78
2022/12/15 07:19:12;;;;;;;10.07;5.77;;;9.20;95.70;;;;;;6180221;23;20273;-78
2022/12/15 07:21:41;;;;;;;10.77;5.87;;;9.20;95.80;;;;;;6179683;23;20547;-78
2022/12/15 07:24:11;;;;;;;11.00;5.90;;;9.20;96.10;;;;;;6182022;23;20172;-79
2022/12/15 07:26:40;;;;;;;11.63;6.33;;;9.20;95.80;;;;;;6185187;23;20258;-77
2022/12/15 07:29:08;;;;;;;9.83;5.73;;;9.20;95.70;;;;;;6183289;23;20226;-78
2022/12/15 07:31:38;;;;;;;10.00;5.60;;;9.20;95.70;;;;;;6180249;23;20539;-78
2022/12/15 07:34:06;;;;;;;9.10;5.27;;;9.30;95.70;;;;;;6181742;23;20214;-78
2022/12/15 07:36:35;;;;;;;9.57;5.27;;;9.20;95.50;;;;;;6178874;23;20175;-80
2022/12/15 07:39:05;;;;;;;9.50;5.50;;;9.20;95.60;;;;;;6182686;23;20179;-79
2022/12/15 07:41:34;;;;;;;9.87;5.60;;;9.30;95.60;;;;;;6182066;23;20171;-78
2022/12/15 07:44:02;;;;;;;10.93;5.03;;;9.30;95.70;;;;;;6181558;23;20180;-79
2022/12/15 07:46:30;;;;;;;9.57;5.78;;;9.40;95.70;;;;;;6175669;23;20385;-78
2022/12/15 07:49:00;;;;;;;11.97;5.17;;;9.50;95.80;;;;;;6182812;23;20171;-77
2022/12/15 07:51:28;;;;;;;11.20;5.63;;;9.60;95.80;;;;;;6177004;23;20219;-78
2022/12/15 07:53:57;;;;;;;11.93;5.63;;;9.60;95.80;;;;;;6182240;23;20538;-78
2022/12/15 07:56:25;;;;;;;13.43;6.23;;;9.60;95.70;;;;;;6178932;23;20176;-79
2022/12/15 07:58:54;;;;;;;9.77;5.33;;;9.60;95.60;;;;;;6181950;23;20171;-79
2022/12/15 08:01:30;;;;;;;9.83;6.03;;;9.70;95.60;;;;;;6181015;23;20194;-78
2022/12/15 08:04:06;;;;;;;10.83;7.23;;;9.70;95.60;;;;;;6180122;23;20164;-80
2022/12/15 08:06:35;;;;;;;10.63;5.73;;;9.80;95.60;;;;;;6178181;23;20226;-77
2022/12/15 08:09:04;;;;;;;8.03;4.87;;;9.80;95.60;;;;;;6179473;23;20558;-77
2022/12/15 08:11:34;;;;;;;10.47;5.63;;;9.80;95.50;;;;;;6179823;23;20192;-78
2022/12/15 08:14:03;;;;;;;12.05;6.90;;;9.80;95.30;;;;;;6177317;23;20443;-80
2022/12/15 08:16:36;;;;;;;11.77;5.73;;;9.90;95.50;;;;;;6180466;23;20163;-81
2022/12/15 08:19:07;;;;;;;13.73;5.97;;;9.90;95.60;;;;;;6182794;23;20196;-83
2022/12/15 08:21:35;;;;;;;13.63;5.80;;;9.90;95.50;;;;;;6179320;23;20179;-80
2022/12/15 08:24:04;;;;;;;14.77;6.80;;;9.90;95.50;;;;;;6178577;23;20172;-83
2022/12/15 08:26:32;;;;;;;10.07;6.17;;;10.00;95.50;;;;;;6173818;23;20203;-81
2022/12/15 08:29:29;;;;;;;11.60;6.13;;;10.00;95.40;;;;;;6177757;23;20227;-80
2022/12/15 08:32:18;;;;;;;11.70;5.30;;;10.00;95.40;;;;;;6175941;23;20207;-82
2022/12/15 08:34:48;;;;;;;9.67;4.67;;;10.00;95.40;;;;;;6178120;23;20257;-81
2022/12/15 08:37:16;;;;;;;10.60;5.55;;;10.10;95.30;;;;;;6180020;23;20389;-81
2022/12/15 08:39:45;;;;;;;9.97;5.17;;;10.10;95.40;;;;;;6180888;23;20227;-81
2022/12/15 08:42:13;;;;;;;8.20;4.43;;;10.10;95.40;;;;;;6176477;23;20176;-81
2022/12/15 08:44:42;;;;;;;9.67;5.10;;;10.10;95.30;;;;;;6177642;23;20230;-80
2022/12/15 08:47:10;;;;;;;8.93;5.03;;;10.10;95.20;;;;;;6181138;23;20233;-81
2022/12/15 08:49:38;;;;;;;9.13;5.20;;;10.10;95.10;;;;;;6179640;23;20178;-80
2022/12/15 08:52:08;;;;;;;9.30;5.77;;;10.10;95.10;;;;;;6181083;23;20250;-81
2022/12/15 08:54:37;;;;;;;10.07;6.03;;;10.10;95.00;;;;;;6180367;23;20171;-81
2022/12/15 08:57:05;;;;;;;9.93;5.57;;;10.10;95.10;;;;;;6181768;23;20172;-79
2022/12/15 08:59:34;;;;;;;10.20;5.67;;;10.00;95.10;;;;;;6180133;23;20179;-81
2022/12/15 09:02:02;;;;;;;12.57;6.50;;;10.00;95.10;;;;;;6183095;23;20500;-78
2022/12/15 09:04:31;;;;;;;10.47;5.93;;;10.00;95.20;;;;;;6180823;23;20622;-80
2022/12/15 09:06:59;;;;;;;10.13;6.40;;;10.00;95.30;;;;;;6180393;23;20625;-80
2022/12/15 09:09:29;;;;;;;9.77;5.97;;;10.00;95.30;;;;;;6181715;23;20798;-80
2022/12/15 09:11:57;;;;;;;9.60;5.57;;;9.90;95.40;;;;;;6182330;23;20200;-81
2022/12/15 09:14:25;;;;;;;10.50;5.30;;;9.90;95.80;;;;;;6177420;23;20722;-82
2022/12/15 09:16:56;;;;;;;10.03;5.83;;;9.90;95.40;;;;;;6179759;23;20164;-80
2022/12/15 09:19:25;;;;;;;11.83;5.83;;;10.00;95.70;;;;;;6184560;23;20182;-81
2022/12/15 09:21:54;;;;;;;9.40;5.47;;;10.00;95.90;;;;;;6178655;23;20637;-81
2022/12/15 09:24:23;;;;;;;12.87;5.43;;;10.00;95.80;;;;;;6183287;23;20519;-82
2022/12/15 09:27:03;;;;;;;8.13;4.93;;;10.00;95.80;;;;;;6178719;23;20195;-82
2022/12/15 09:29:34;;;;;;;7.57;4.50;;;10.10;95.90;;;;;;6179715;23;20167;-81
2022/12/15 09:32:03;;;;;;;7.07;3.90;;;10.10;95.80;;;;;;6178568;23;20668;-80
2022/12/15 09:34:39;;;;;;;8.83;4.53;;;10.10;96.30;;;;;;6183576;23;20218;-81
2022/12/15 09:37:07;;;;;;;6.63;3.63;;;10.20;96.10;;;;;;6180636;23;20171;-79
2022/12/15 09:39:36;;;;;;;8.30;4.47;;;10.10;96.10;;;;;;6182483;23;20192;-81
2022/12/15 09:42:06;;;;;;;7.30;4.43;;;10.10;95.60;;;;;;6177790;23;20923;-81
2022/12/15 09:44:34;;;;;;;8.50;4.73;;;10.20;95.90;;;;;;6179552;23;20172;-82
2022/12/15 09:47:14;;;;;;;7.17;4.67;;;10.20;95.70;;;;;;6174805;23;20208;-82
2022/12/15 09:49:52;;;;;;;9.20;5.23;;;10.20;95.50;;;;;;6180292;23;20247;-79
2022/12/15 09:52:23;;;;;;;8.63;4.37;;;10.20;95.40;;;;;;6181814;23;20187;-80
2022/12/15 09:54:52;;;;;;;7.30;4.37;;;10.20;95.20;;;;;;6180100;23;20163;-80
2022/12/15 09:57:30;;;;;;;7.93;4.73;;;10.20;95.30;;;;;;6181761;23;20175;-81
2022/12/15 10:00:16;;;;;;;8.90;5.17;;;10.20;95.30;;;;;;6177779;23;20160;-82
2022/12/15 10:03:16;;;;;;;11.93;6.47;;;10.20;95.30;;;;;;6183570;23;20218;-82
2022/12/15 10:06:06;;;;;;;12.97;5.70;;;10.20;95.20;;;;;;6178242;23;20199;-82
2022/12/15 10:08:56;;;;;;;7.87;4.90;;;10.20;95.10;;;;;;6180638;23;20299;-81
2022/12/15 10:11:41;;;;;;;7.20;5.00;;;10.30;95.20;;;;;;6182927;23;20598;-83
2022/12/15 10:14:21;;;;;;;5.95;3.88;;;10.30;94.90;;;;;;6173981;23;20360;-78
2022/12/15 10:16:59;;;;;;;7.17;3.57;;;10.30;94.60;;;;;;6176623;23;20270;-79
2022/12/15 10:19:36;;;;;;;6.30;3.83;;;10.40;94.70;;;;;;6182214;23;20164;-79
2022/12/15 10:22:05;;;;;;;7.70;4.27;;;10.30;94.70;;;;;;6181143;23;20155;-81
2022/12/15 10:24:33;;;;;;;6.17;4.10;;;10.30;94.70;;;;;;6180446;23;20175;-81
2022/12/15 10:27:36;;;;;;;8.50;4.20;;;10.40;94.80;;;;;;6180740;23;20568;-80
2022/12/15 10:30:10;;;;;;;6.50;3.83;;;10.40;94.90;;;;;;6179241;23;20168;-78
2022/12/15 10:32:49;;;;;;;8.20;4.77;;;10.30;94.60;;;;;;6179938;23;20253;-80
2022/12/15 10:35:21;;;;;;;7.47;4.43;;;10.40;94.60;;;;;;6179131;23;20230;-80
2022/12/15 10:37:49;;;;;;;7.43;4.80;;;10.30;94.70;;;;;;6179654;23;20171;-80
2022/12/15 10:40:39;;;;;;;11.13;4.77;;;10.30;94.70;;;;;;6183708;23;20687;-80
2022/12/15 10:43:13;;;;;;;8.67;5.17;;;10.30;94.80;;;;;;6180314;23;20160;-81
2022/12/15 10:45:43;;;;;;;7.60;4.67;;;10.30;94.80;;;;;;6181529;23;20160;-80
2022/12/15 10:48:19;;;;;;;11.50;4.60;;;10.30;94.80;;;;;;6181097;23;20695;-80
2022/12/15 10:50:48;;;;;;;7.60;5.00;;;10.30;94.80;;;;;;6178573;23;20163;-79
2022/12/15 10:53:34;;;;;;;8.40;4.70;;;10.30;94.70;;;;;;6177744;23;20239;-80
2022/12/15 10:56:07;;;;;;;8.20;4.87;;;10.30;94.70;;;;;;6173987;23;20558;-80
2022/12/15 10:58:46;;;;;;;7.63;4.60;;;10.30;94.80;;;;;;6181928;23;20160;-80
2022/12/15 11:01:20;;;;;;;8.03;5.00;;;10.20;94.80;;;;;;6180343;23;20160;-81
2022/12/15 11:03:51;;;;;;;9.57;6.20;;;10.30;94.80;;;;;;6181817;23;20597;-82
2022/12/15 11:06:22;;;;;;;10.10;5.90;;;10.30;94.90;;;;;;6181729;23;20163;-81
2022/12/15 11:08:53;;;;;;;11.97;6.47;;;10.40;94.90;;;;;;6178105;23;20251;-83
2022/12/15 11:14:19;;;;;;;8.13;5.20;;;10.30;94.70;;;;;;6179355;23;20172;-81
2022/12/15 11:16:55;;;;;;;9.10;4.83;;;10.40;94.70;;;;;;6177688;23;20230;-80
2022/12/15 11:19:35;;;;;;;10.30;6.05;;;10.30;94.40;;;;;;6185203;23;20443;-78
2022/12/15 11:22:10;;;;;;;8.93;4.83;;;10.30;94.50;;;;;;6183515;23;20207;-80
2022/12/15 11:24:43;;;;;;;7.27;4.40;;;10.30;94.50;;;;;;6185036;23;20169;-80
2022/12/15 11:27:25;;;;;;;9.00;5.20;;;10.30;94.60;;;;;;6181580;23;20318;-81
2022/12/15 11:30:01;;;;;;;10.43;5.23;;;10.40;94.50;;;;;;6183633;23;20218;-83
2022/12/15 11:32:35;;;;;;;7.67;4.43;;;10.30;93.90;;;;;;6181835;23;20184;-80
2022/12/15 11:35:03;;;;;;;7.03;4.63;;;10.30;93.70;;;;;;6184596;23;20219;-81
2022/12/15 11:37:40;;;;;;;9.77;5.53;;;10.20;93.50;;;;;;6186102;23;20172;-82
2022/12/15 11:40:38;;;;;;;8.33;4.80;;;10.20;93.70;;;;;;6184196;23;20163;-80
2022/12/15 11:43:27;;;;;;;7.70;4.87;;;10.20;93.40;;;;;;6156088;23;20194;-79
2022/12/15 11:46:06;;;;;;;9.27;5.63;;;10.30;93.50;;;;;;6184207;23;20384;-79
2022/12/15 11:48:44;;;;;;;10.97;5.43;;;10.20;93.50;;;;;;6181797;23;20230;-81
2022/12/15 11:51:23;;;;;;;11.57;5.10;;;10.20;93.00;;;;;;6186262;23;20160;-81
2022/12/15 11:54:07;;;;;;;9.60;4.50;;;10.20;93.10;;;;;;6182580;23;20562;-80
2022/12/15 11:56:39;;;;;;;11.67;5.47;;;10.20;93.10;;;;;;6184391;23;20214;-81
2022/12/15 11:59:41;;;;;;;9.17;4.33;;;10.10;93.10;;;;;;6182449;23;20558;-78
2022/12/15 12:02:54;;;;;;;10.13;5.10;;;10.10;93.30;;;;;;6109639;23;20480;-80
2022/12/15 12:06:01;;;;;;;9.77;5.57;;;10.20;93.30;;;;;;6059942;23;20206;-81
2022/12/15 12:08:43;;;;;;;11.33;5.13;;;10.10;93.10;;;;;;6180908;23;20707;-79
2022/12/15 12:11:15;;;;;;;8.53;5.30;;;10.20;93.10;;;;;;6180987;23;20163;-78
2022/12/15 12:13:54;;;;;;;11.27;5.67;;;10.10;93.20;;;;;;6177246;23;20223;-79
2022/12/15 12:16:32;;;;;;;10.37;5.57;;;10.10;93.40;;;;;;6180021;23;20163;-83
2022/12/15 12:19:04;;;;;;;14.87;6.67;;;10.10;93.40;;;;;;6185491;23;20518;-80
2022/12/15 12:21:39;;;;;;;13.90;6.60;;;10.10;93.50;;;;;;6185266;23;20156;-78
2022/12/15 12:24:16;;;;;;;11.40;5.87;;;10.10;93.60;;;;;;6182938;23;20156;-78
2022/12/15 12:26:47;;;;;;;10.07;5.77;;;10.10;93.70;;;;;;6180969;23;20206;-79
2022/12/15 12:29:23;;;;;;;10.20;5.13;;;10.00;93.70;;;;;;6180369;23;20164;-80
2022/12/15 12:32:02;;;;;;;13.20;5.90;;;10.00;93.80;;;;;;6178562;23;20222;-78
2022/12/15 12:35:00;;;;;;;13.43;6.47;;;10.00;93.80;;;;;;6181798;23;20286;-78
2022/12/15 12:37:53;;;;;;;11.83;5.80;;;10.00;93.80;;;;;;6184802;23;20838;-78
2022/12/15 12:40:35;;;;;;;12.10;6.13;;;10.10;93.80;;;;;;6184442;23;20166;-80
2022/12/15 12:43:04;;;;;;;10.87;5.70;;;10.10;93.80;;;;;;6186464;23;20155;-78
2022/12/15 12:45:49;;;;;;;10.90;6.13;;;10.00;93.60;;;;;;6182925;23;20160;-78
2022/12/15 12:48:25;;;;;;;9.57;6.23;;;10.00;93.70;;;;;;6183608;23;20159;-79
2022/12/15 12:51:11;;;;;;;10.10;5.33;;;9.90;93.60;;;;;;6181225;23;20159;-80
2022/12/15 12:53:40;;;;;;;9.43;5.90;;;9.90;93.50;;;;;;6186915;23;20198;-79
2022/12/15 12:56:34;;;;;;;14.73;5.67;;;9.80;93.50;;;;;;6182476;23;20183;-80
2022/12/15 12:59:07;;;;;;;12.40;6.63;;;9.70;93.70;;;;;;6186982;23;20160;-78
2022/12/15 13:01:37;;;;;;;10.53;5.77;;;9.70;93.80;;;;;;6185887;23;20165;-80
2022/12/15 13:04:09;;;;;;;11.53;5.70;;;9.70;93.80;;;;;;6187135;23;20156;-78
2022/12/15 13:06:57;;;;;;;10.90;5.37;;;9.70;93.90;;;;;;6185306;23;20160;-80
2022/12/15 13:09:39;;;;;;;8.93;4.93;;;9.70;93.90;;;;;;6186815;23;20160;-80
2022/12/15 13:12:36;;;;;;;12.33;6.20;;;9.70;93.90;;;;;;6186276;23;20168;-80
2022/12/15 13:15:41;;;;;;;12.38;6.72;;;9.80;93.90;;;;;;6185889;23;20436;-79
2022/12/15 13:18:17;;;;;;;8.37;5.10;;;9.70;94.00;;;;;;6181232;23;20250;-80
2022/12/15 13:20:46;;;;;;;10.80;5.53;;;9.70;94.00;;;;;;6180645;23;20159;-79
2022/12/15 13:23:42;;;;;;;10.67;5.10;;;9.80;93.90;;;;;;6186138;23;20164;-78
2022/12/15 13:26:19;;;;;;;10.97;5.93;;;9.80;93.90;;;;;;6186189;23;20204;-78
2022/12/15 13:28:52;;;;;;;12.20;6.32;;;9.70;93.90;;;;;;6177592;23;20068;-79
2022/12/15 13:31:32;;;;;;;14.47;6.57;;;9.80;93.90;;;;;;6181028;23;20218;-77
2022/12/15 13:34:19;;;;;;;11.60;5.97;;;9.80;93.90;;;;;;6182637;23;20246;-77
2022/12/15 13:36:56;;;;;;;7.93;5.27;;;9.80;93.90;;;;;;6183122;23;20167;-77
2022/12/15 13:39:55;;;;;;;9.47;6.13;;;9.70;93.90;;;;;;6182606;23;20163;-77
2022/12/15 13:42:36;;;;;;;16.77;5.90;;;9.70;93.90;;;;;;6183386;23;20160;-79
2022/12/15 13:45:46;;;;;;;11.50;5.97;;;9.70;93.90;;;;;;6184634;23;20605;-78
2022/12/15 13:48:30;;;;;;;10.17;5.80;;;9.70;93.90;;;;;;6170066;23;20218;-78
2022/12/15 13:51:05;;;;;;;12.57;6.20;;;9.70;94.00;;;;;;6181339;23;20160;-77
2022/12/15 13:53:40;;;;;;;12.23;6.23;;;9.70;94.00;;;;;;6184906;23;20215;-78
2022/12/15 13:56:45;;;;;;;10.57;6.30;;;9.60;94.10;;;;;;6175956;23;20164;-77
2022/12/15 13:59:27;;;;;;;10.97;6.27;;;9.60;94.10;;;;;;6121844;23;20238;-78
2022/12/15 14:01:55;;;;;;;11.23;6.53;;;9.60;94.20;;;;;;6177919;23;20160;-78
2022/12/15 14:04:24;;;;;;;14.40;7.20;;;9.60;94.20;;;;;;6180530;23;20172;-77
2022/12/15 14:06:55;;;;;;;15.23;7.20;;;9.50;94.30;;;;;;6179293;23;20175;-79
2022/12/15 14:09:27;;;;;;;15.88;8.48;;;9.50;94.30;;;;;;6183849;23;20381;-78
2022/12/15 14:11:59;;;;;;;15.43;7.90;;;9.50;94.90;;;;;;6179836;23;20164;-77
2022/12/15 14:14:31;;;;;;;18.43;8.47;;;9.50;94.60;;;;;;6183494;23;20184;-79
2022/12/15 14:17:01;;;;;;;17.67;7.07;;;9.50;94.50;;;;;;6183437;23;20161;-79
2022/12/15 14:19:39;;;;;;;12.43;6.83;;;9.50;94.50;;;;;;6179805;23;20509;-80
2022/12/15 14:22:21;;;;;;;14.40;7.70;;;9.40;94.50;;;;;;6179124;23;20639;-82
2022/12/15 14:25:02;;;;;;;16.10;7.70;;;9.40;94.40;;;;;;6106444;23;20668;-79
2022/12/15 14:27:32;;;;;;;13.23;7.73;;;9.30;94.50;;;;;;6179036;23;20204;-79
2022/12/15 14:30:21;;;;;;;14.90;8.52;;;9.30;94.50;;;;;;6182109;23;20423;-79
2022/12/15 14:32:52;;;;;;;13.90;8.13;;;9.30;94.60;;;;;;6178917;23;20171;-80
2022/12/15 14:35:27;;;;;;;16.57;8.63;;;9.20;94.70;;;;;;6182655;23;20192;-79
2022/12/15 14:38:10;;;;;;;17.80;8.70;;;9.20;94.80;;;;;;6182460;23;20160;-78
2022/12/15 14:40:43;;;;;;;16.83;8.57;;;9.20;94.80;;;;;;6182608;23;20250;-80
2022/12/15 14:43:18;;;;;;;15.93;8.33;;;9.20;94.80;;;;;;6185319;23;20218;-79
2022/12/15 14:45:53;;;;;;;16.53;9.10;;;9.20;94.80;;;;;;6184497;23;20522;-78
2022/12/15 14:48:29;;;;;;;15.13;7.57;;;9.20;94.80;;;;;;6177903;23;20235;-79
2022/12/15 14:51:11;;;;;;;14.40;7.90;;;9.20;95.20;;;;;;6182202;23;20222;-80
2022/12/15 14:53:41;;;;;;;14.60;8.33;;;9.10;94.60;;;;;;6176685;23;20168;-77
2022/12/15 14:56:15;;;;;;;13.50;7.80;;;9.10;94.70;;;;;;6176892;23;20246;-76
2022/12/15 14:58:45;;;;;;;17.00;8.80;;;9.10;94.70;;;;;;6179318;23;20683;-78
2022/12/15 15:01:25;;;;;;;16.73;8.40;;;9.00;94.80;;;;;;6175840;23;20164;-78
2022/12/15 15:03:58;;;;;;;13.37;8.33;;;8.90;95.00;;;;;;6180796;23;20198;-77
2022/12/15 15:06:31;;;;;;;15.20;8.10;;;8.90;95.00;;;;;;6177246;23;20186;-78
2022/12/15 15:09:14;;;;;;;16.33;9.03;;;8.90;95.00;;;;;;6179385;23;20215;-78
2022/12/15 15:11:43;;;;;;;12.07;7.77;;;8.90;95.00;;;;;;6180016;23;20167;-80
2022/12/15 15:14:15;;;;;;;15.73;7.70;;;8.90;95.10;;;;;;6178433;23;20735;-79
2022/12/15 15:16:45;;;;;;;14.70;8.43;;;8.80;95.00;;;;;;6181400;23;20160;-79
2022/12/15 15:19:21;;;;;;;16.20;8.27;;;8.80;94.90;;;;;;6177969;23;20191;-80
2022/12/15 15:21:49;;;;;;;16.85;9.23;;;8.80;94.90;;;;;;6179359;23;20377;-78
2022/12/15 15:24:34;;;;;;;14.17;8.27;;;8.80;95.10;;;;;;6181825;23;20179;-79
2022/12/15 15:27:25;;;;;;;18.00;8.83;;;8.80;95.10;;;;;;6181064;23;20195;-77
2022/12/15 15:30:12;;;;;;;19.10;8.80;;;8.80;95.00;;;;;;6181661;23;20259;-79
2022/12/15 15:32:55;;;;;;;16.03;8.50;;;8.70;95.10;;;;;;6182746;23;20198;-78
2022/12/15 15:35:30;;;;;;;17.90;9.93;;;8.70;95.10;;;;;;6179005;23;20405;-79
2022/12/15 15:38:04;;;;;;;16.33;9.67;;;8.70;95.30;;;;;;6181205;23;20531;-80
2022/12/15 15:40:32;;;;;;;14.03;8.30;;;8.70;95.30;;;;;;6181051;23;20160;-78
2022/12/15 15:43:01;;;;;;;15.53;8.23;;;8.60;95.20;;;;;;6177435;23;20172;-79